createdAt,value
2023-01-15T00:00:44.733Z,1.5
2023-01-15T00:04:06.188Z,1.4
2023-01-15T00:07:00.395Z,1.5
2023-01-15T00:09:55.776Z,1.8
2023-01-15T00:13:09.413Z,1.6
2023-01-15T00:16:02.300Z,1.7
2023-01-15T00:19:25.849Z,1.6
2023-01-15T00:22:08.455Z,1.6
2023-01-15T00:25:13.695Z,1.6
2023-01-15T00:28:21.172Z,1.5
2023-01-15T00:31:38.575Z,1.4
2023-01-15T00:34:56.729Z,1.6
2023-01-15T00:37:52.243Z,1.6
2023-01-15T00:40:56.708Z,1.3
2023-01-15T00:43:52.448Z,1.3
2023-01-15T00:47:09.476Z,1.2
2023-01-15T00:50:03.883Z,1.1
2023-01-15T00:53:06.841Z,1.1
2023-01-15T00:56:11.200Z,1.1
2023-01-15T00:59:19.524Z,1
2023-01-15T01:02:21.949Z,1
2023-01-15T01:05:27.150Z,1
2023-01-15T01:08:29.383Z,0.9
2023-01-15T01:11:44.650Z,0.9
2023-01-15T01:14:50.020Z,0.7
2023-01-15T01:17:55.442Z,0.9
2023-01-15T01:21:00.106Z,0.7
2023-01-15T01:23:58.966Z,0.8
2023-01-15T01:26:56.990Z,0.8
2023-01-15T01:30:01.472Z,0.9
2023-01-15T01:33:12.898Z,0.8
2023-01-15T01:36:08.040Z,0.9
2023-01-15T01:39:12.924Z,0.6
2023-01-15T01:42:17.992Z,0.7
2023-01-15T01:45:33.342Z,0.5
2023-01-15T01:48:30.851Z,0.6
2023-01-15T01:51:30.517Z,0.5
2023-01-15T01:54:32.902Z,0.5
2023-01-15T01:57:43.807Z,0.5
2023-01-15T02:00:54.169Z,0.3
2023-01-15T02:03:51.570Z,0.5
2023-01-15T02:06:56.955Z,0.4
2023-01-15T02:10:01.795Z,0.3
2023-01-15T02:13:07.331Z,0.4
2023-01-15T02:16:18.162Z,0.3
2023-01-15T02:19:20.901Z,0.4
2023-01-15T02:22:28.522Z,0.8
2023-01-15T02:25:20.637Z,0.4
2023-01-15T02:28:22.821Z,0.4
2023-01-15T02:31:27.271Z,0.4
2023-01-15T02:34:32.644Z,0.4
2023-01-15T02:37:37.424Z,0.3
2023-01-15T02:40:39.972Z,0.4
2023-01-15T02:43:50.533Z,0.4
2023-01-15T02:46:50.244Z,0.4
2023-01-15T02:49:52.346Z,0.4
2023-01-15T02:52:54.422Z,0.4
2023-01-15T02:56:09.909Z,0.4
2023-01-15T02:59:02.089Z,0.3
2023-01-15T03:02:04.277Z,0.2
2023-01-15T03:05:06.427Z,0.4
2023-01-15T03:08:10.897Z,0.2
2023-01-15T03:11:10.688Z,0.2
2023-01-15T03:14:14.434Z,0.3
2023-01-15T03:17:22.516Z,0.3
2023-01-15T03:20:29.864Z,0.2
2023-01-15T03:23:29.952Z,0.3
2023-01-15T03:26:32.069Z,0.2
2023-01-15T03:29:34.464Z,0.2
2023-01-15T03:32:39.690Z,0.3
2023-01-15T03:35:58.553Z,0.2
2023-01-15T03:39:05.228Z,0.2
2023-01-15T03:42:00.569Z,0.2
2023-01-15T03:45:00.551Z,0.2
2023-01-15T03:48:15.793Z,0.2
2023-01-15T03:51:19.017Z,0.2
2023-01-15T03:54:17.034Z,0.2
2023-01-15T03:57:24.991Z,0.1
2023-01-15T04:00:40.302Z,0.3
2023-01-15T04:03:36.130Z,0.2
2023-01-15T04:06:56.310Z,0.2
2023-01-15T04:09:49.610Z,0.2
2023-01-15T04:12:54.399Z,0.2
2023-01-15T04:16:13.635Z,0.2
2023-01-15T04:19:29.896Z,0.2
2023-01-15T04:22:15.582Z,0.2
2023-01-15T04:25:07.711Z,0.3
2023-01-15T04:28:19.080Z,0.3
2023-01-15T04:31:17.938Z,0.3
2023-01-15T04:34:28.631Z,0.2
2023-01-15T04:37:23.696Z,0.3
2023-01-15T04:40:30.733Z,0.2
2023-01-15T04:43:31.232Z,0.2
2023-01-15T04:46:39.871Z,0.2
2023-01-15T04:49:42.079Z,0.2
2023-01-15T04:52:44.560Z,0.2
2023-01-15T04:55:52.289Z,0.3
2023-01-15T04:59:37.172Z,0.2
2023-01-15T05:02:06.231Z,0.5
2023-01-15T05:05:59.178Z,0.2
2023-01-15T05:08:31.269Z,0.3
2023-01-15T05:11:27.177Z,0.2
2023-01-15T05:14:28.602Z,0.2
2023-01-15T05:17:20.890Z,0.2
2023-01-15T05:20:23.127Z,0.3
2023-01-15T05:23:25.406Z,0.2
2023-01-15T05:26:50.822Z,0.2
2023-01-15T05:29:38.561Z,0.5
2023-01-15T05:32:44.649Z,0.3
2023-01-15T05:35:44.452Z,0.2
2023-01-15T05:38:51.715Z,0.3
2023-01-15T05:41:51.898Z,0.3
2023-01-15T05:45:08.378Z,0.2
2023-01-15T05:48:01.096Z,0.2
2023-01-15T05:51:05.365Z,0.2
2023-01-15T05:54:08.645Z,0.3
2023-01-15T05:57:10.905Z,0.3
2023-01-15T06:00:13.500Z,0.3
2023-01-15T06:03:18.446Z,0.2
2023-01-15T06:06:25.881Z,0.2
2023-01-15T06:09:25.739Z,0.3
2023-01-15T06:12:27.957Z,0.3
2023-01-15T06:15:32.531Z,0.4
2023-01-15T06:18:35.118Z,0.3
2023-01-15T06:21:47.779Z,0.3
2023-01-15T06:24:40.172Z,0.3
2023-01-15T06:27:47.862Z,0.4
2023-01-15T06:30:53.882Z,0.2
2023-01-15T06:33:56.210Z,0.2
2023-01-15T06:37:01.001Z,0.4
2023-01-15T06:40:12.718Z,0.3
2023-01-15T06:43:05.710Z,0.3
2023-01-15T06:46:11.298Z,0.3
2023-01-15T06:49:21.502Z,0.3
2023-01-15T06:52:30.333Z,0.3
2023-01-15T06:55:25.241Z,0.3
2023-01-15T06:58:27.444Z,0.2
2023-01-15T07:01:29.819Z,0.3
2023-01-15T07:04:31.949Z,0.2
2023-01-15T07:07:36.528Z,0.2
2023-01-15T07:10:39.096Z,0.3
2023-01-15T07:13:39.182Z,0.3
2023-01-15T07:16:44.432Z,0.3
2023-01-15T07:20:12.588Z,0.3
2023-01-15T07:23:07.403Z,0.4
2023-01-15T07:26:07.285Z,0.4
2023-01-15T07:28:59.383Z,0.4
2023-01-15T07:32:04.645Z,0.5
2023-01-15T07:35:06.879Z,0.4
2023-01-15T07:38:12.061Z,0.7
2023-01-15T07:41:14.236Z,0.6
2023-01-15T07:44:19.419Z,0.6
2023-01-15T07:47:44.685Z,0.6
2023-01-15T07:50:26.768Z,0.4
2023-01-15T07:53:28.949Z,0.5
2023-01-15T07:56:34.293Z,0.4
2023-01-15T07:59:39.276Z,0.4
2023-01-15T08:02:41.474Z,0.4
2023-01-15T08:05:49.272Z,0.4
2023-01-15T08:08:54.441Z,0.5
2023-01-15T08:12:02.425Z,0.4
2023-01-15T08:15:04.830Z,0.5
2023-01-15T08:18:12.649Z,0.4
2023-01-15T08:21:20.400Z,0.4
2023-01-15T08:24:25.591Z,0.3
2023-01-15T08:27:30.582Z,0.3
2023-01-15T08:30:32.829Z,0.3
2023-01-15T08:33:40.770Z,0.4
2023-01-15T08:36:45.813Z,0.4
2023-01-15T08:39:48.291Z,0.3
2023-01-15T08:42:50.366Z,0.4
2023-01-15T08:45:55.654Z,0.3
2023-01-15T08:49:05.812Z,0.2
2023-01-15T08:52:11.541Z,0.3
2023-01-15T08:55:20.227Z,0.2
2023-01-15T08:58:12.582Z,0.2
2023-01-15T09:01:17.786Z,0.2
2023-01-15T09:04:19.898Z,0.3
2023-01-15T09:07:31.198Z,0.3
2023-01-15T09:10:23.878Z,0.2
2023-01-15T09:13:25.934Z,0.3
2023-01-15T09:16:37.273Z,0.2
2023-01-15T09:19:29.887Z,0.3
2023-01-15T09:22:35.873Z,0.3
2023-01-15T09:25:52.911Z,0.2
2023-01-15T09:29:05.263Z,0.4
2023-01-15T09:31:50.471Z,0.3
2023-01-15T09:34:57.646Z,0.3
2023-01-15T09:38:03.026Z,0.4
2023-01-15T09:41:06.684Z,0.4
2023-01-15T09:44:14.524Z,0.3
2023-01-15T09:47:16.989Z,0.3
2023-01-15T09:50:25.438Z,0.2
2023-01-15T09:53:30.465Z,0.3
2023-01-15T09:56:35.872Z,0.3
2023-01-15T09:59:38.289Z,0.3
2023-01-15T10:02:43.460Z,0.5
2023-01-15T10:05:45.706Z,0.5
2023-01-15T10:08:48.556Z,0.5
2023-01-15T10:11:53.801Z,0.4
2023-01-15T10:14:59.213Z,0.4
2023-01-15T10:18:20.364Z,0.4
2023-01-15T10:21:03.225Z,0.4
2023-01-15T10:24:12.339Z,0.4
2023-01-15T10:27:14.538Z,0.6
2023-01-15T10:30:19.793Z,0.4
2023-01-15T10:33:22.309Z,0.4
2023-01-15T10:36:27.667Z,0.7
2023-01-15T10:39:30.431Z,0.3
2023-01-15T10:42:32.330Z,0.4
2023-01-15T10:45:36.013Z,0.3
2023-01-15T10:48:39.292Z,0.3
2023-01-15T10:51:44.801Z,0.4
2023-01-15T10:54:47.576Z,0.4
2023-01-15T10:58:05.370Z,0.4
2023-01-15T11:00:58.048Z,0.4
2023-01-15T11:04:00.533Z,0.5
2023-01-15T11:07:05.901Z,0.5
2023-01-15T11:10:14.224Z,0.6
2023-01-15T11:13:17.065Z,0.5
2023-01-15T11:16:22.124Z,0.5
2023-01-15T11:19:33.795Z,0.2
2023-01-15T11:22:29.064Z,0.5
2023-01-15T11:25:32.096Z,0.5
2023-01-15T11:28:37.023Z,0.4
2023-01-15T11:31:40.618Z,0.7
2023-01-15T11:34:44.526Z,0.5
2023-01-15T11:37:46.711Z,0.6
2023-01-15T11:40:57.766Z,0.4
2023-01-15T11:43:55.618Z,0.5
2023-01-15T11:46:55.752Z,0.8
2023-01-15T11:50:02.084Z,0.7
2023-01-15T11:53:10.594Z,1.2
2023-01-15T11:56:15.673Z,1.5
2023-01-15T11:59:43.958Z,1.7
2023-01-15T12:02:26.109Z,2.3
2023-01-15T12:05:28.072Z,1.7
2023-01-15T12:08:30.039Z,1.3
2023-01-15T12:11:32.062Z,1.2
2023-01-15T12:14:34.022Z,0.8
2023-01-15T12:17:37.457Z,0.7
2023-01-15T12:20:38.016Z,0.7
2023-01-15T12:23:39.970Z,0.5
2023-01-15T12:26:41.952Z,0.9
2023-01-15T12:29:43.896Z,0.6
2023-01-15T12:32:45.875Z,0.5
2023-01-15T12:35:47.841Z,0.5
2023-01-15T12:38:49.823Z,0.5
2023-01-15T12:41:51.836Z,0.7
2023-01-15T12:44:53.820Z,0.5
2023-01-15T12:47:55.777Z,0.8
2023-01-15T12:50:57.788Z,0.8
2023-01-15T12:53:59.785Z,3.8
2023-01-15T12:57:02.717Z,2.9
2023-01-15T13:00:03.743Z,1.6
2023-01-15T13:03:05.650Z,1.2
2023-01-15T13:06:07.671Z,0.8
2023-01-15T13:09:09.599Z,0.8
2023-01-15T13:12:11.633Z,0.6
2023-01-15T13:15:13.576Z,0.5
2023-01-15T13:18:15.531Z,0.6
2023-01-15T13:21:17.577Z,0.6
2023-01-15T13:24:19.479Z,0.7
2023-01-15T13:27:21.450Z,0.7
2023-01-15T13:30:23.404Z,0.6
2023-01-15T13:33:25.356Z,0.6
2023-01-15T13:36:27.321Z,0.5
2023-01-15T13:39:29.277Z,0.7
2023-01-15T13:42:31.231Z,0.7
2023-01-15T13:45:33.379Z,0.7
2023-01-15T13:48:35.239Z,0.6
2023-01-15T13:51:37.229Z,0.8
2023-01-15T13:54:39.181Z,1.1
2023-01-15T13:57:41.129Z,0.7
2023-01-15T14:00:43.272Z,1.1
2023-01-15T14:03:45.181Z,0.7
2023-01-15T14:06:47.131Z,0.8
2023-01-15T14:09:49.090Z,0.9
2023-01-15T14:12:51.048Z,0.7
2023-01-15T14:15:53.045Z,1.1
2023-01-15T14:18:54.999Z,0.8
2023-01-15T14:21:57.012Z,0.7
2023-01-15T14:24:58.934Z,0.9
2023-01-15T14:28:00.879Z,0.8
2023-01-15T14:31:02.850Z,1
2023-01-15T14:34:04.807Z,1.1
2023-01-15T14:37:06.812Z,1
2023-01-15T14:40:08.790Z,0.8
2023-01-15T14:43:10.703Z,0.7
2023-01-15T14:46:12.820Z,0.7
2023-01-15T14:49:14.626Z,1
2023-01-15T14:52:16.593Z,0.8
2023-01-15T14:55:18.539Z,0.7
2023-01-15T14:58:20.494Z,0.7
2023-01-15T15:01:22.587Z,0.9
2023-01-15T15:04:24.406Z,1
2023-01-15T15:07:26.362Z,0.8
2023-01-15T15:10:28.318Z,1.1
2023-01-15T15:13:30.340Z,0.9
2023-01-15T15:16:32.313Z,0.8
2023-01-15T15:19:34.258Z,0.8
2023-01-15T15:22:38.413Z,0.9
2023-01-15T15:25:39.477Z,1.1
2023-01-15T15:28:40.125Z,0.9
2023-01-15T15:31:42.072Z,0.8
2023-01-15T15:34:44.024Z,0.8
2023-01-15T15:37:45.997Z,1
2023-01-15T15:40:47.947Z,4.1
2023-01-15T15:43:49.891Z,2.5
2023-01-15T15:46:51.872Z,2.7
2023-01-15T15:49:53.825Z,2.2
2023-01-15T15:52:55.797Z,1.5
2023-01-15T15:55:57.820Z,1.8
2023-01-15T15:58:59.700Z,2.7
2023-01-15T16:02:01.832Z,2.1
2023-01-15T16:05:03.609Z,2.3
2023-01-15T16:08:05.578Z,2.2
2023-01-15T16:11:07.554Z,1.7
2023-01-15T16:14:09.489Z,1.9
2023-01-15T16:17:11.461Z,1.6
2023-01-15T16:20:13.424Z,1.1
2023-01-15T16:23:15.384Z,1.1
2023-01-15T16:26:17.343Z,0.9
2023-01-15T16:29:19.323Z,1.2
2023-01-15T16:32:21.286Z,1.2
2023-01-15T16:35:23.235Z,1.2
2023-01-15T16:38:25.221Z,1.6
2023-01-15T16:41:27.736Z,1
2023-01-15T16:44:29.128Z,0.9
2023-01-15T16:47:31.068Z,0.9
2023-01-15T16:50:33.029Z,0.9
2023-01-15T16:53:35.000Z,0.8
2023-01-15T16:56:36.959Z,0.8
2023-01-15T16:59:38.918Z,0.7
2023-01-15T17:02:40.882Z,0.9
2023-01-15T17:05:42.825Z,0.8
2023-01-15T17:08:44.824Z,0.5
2023-01-15T17:11:46.773Z,0.5
2023-01-15T17:14:48.746Z,0.7
2023-01-15T17:17:50.681Z,0.9
2023-01-15T17:20:52.671Z,0.7
2023-01-15T17:23:54.626Z,0.6
2023-01-15T17:26:56.602Z,0.6
2023-01-15T17:29:58.571Z,0.4
2023-01-15T17:33:00.505Z,0.7
2023-01-15T17:36:02.476Z,0.6
2023-01-15T17:39:04.437Z,0.6
2023-01-15T17:42:06.387Z,0.5
2023-01-15T17:45:08.352Z,0.5
2023-01-15T17:48:10.318Z,0.6
2023-01-15T17:51:12.261Z,0.5
2023-01-15T17:54:14.249Z,0.6
2023-01-15T17:57:16.194Z,0.5
2023-01-15T18:00:18.155Z,0.5
2023-01-15T18:03:20.108Z,0.7
2023-01-15T18:06:22.075Z,0.6
2023-01-15T18:09:24.033Z,0.5
2023-01-15T18:12:26.006Z,0.4
2023-01-15T18:15:27.938Z,2.3
2023-01-15T18:18:29.903Z,1.7
2023-01-15T18:21:31.858Z,1.4
2023-01-15T18:24:33.825Z,1.2
2023-01-15T18:27:35.777Z,1.3
2023-01-15T18:30:37.751Z,1.3
2023-01-15T18:33:39.706Z,1.1
2023-01-15T18:36:41.683Z,1
2023-01-15T18:39:43.646Z,0.9
2023-01-15T18:42:45.593Z,0.9
2023-01-15T18:45:47.550Z,1.3
2023-01-15T18:48:49.513Z,1.2
2023-01-15T18:51:51.470Z,1.5
2023-01-15T18:54:53.435Z,2.5
2023-01-15T18:57:55.411Z,4.4
2023-01-15T19:00:57.395Z,2.5
2023-01-15T19:03:59.318Z,1.8
2023-01-15T19:07:01.379Z,4.9
2023-01-15T19:10:03.332Z,3.1
2023-01-15T19:13:05.362Z,2
2023-01-15T19:16:07.266Z,1.8
2023-01-15T19:19:09.206Z,1.8
2023-01-15T19:22:11.184Z,1.6
2023-01-15T19:25:13.145Z,1.4
2023-01-15T19:28:18.120Z,1.8
2023-01-15T19:31:20.205Z,1
2023-01-15T19:34:33.434Z,1.2
2023-01-15T19:37:24.134Z,1.3
2023-01-15T19:40:26.069Z,2.4
2023-01-15T19:43:28.033Z,1.8
2023-01-15T19:46:30.011Z,2
2023-01-15T19:49:31.992Z,2.1
2023-01-15T19:52:33.949Z,1.4
2023-01-15T19:55:35.945Z,1.6
2023-01-15T19:58:37.898Z,1.4
2023-01-15T20:01:39.953Z,1
2023-01-15T20:04:41.912Z,0.9
2023-01-15T20:07:43.908Z,1.2
2023-01-15T20:10:46.057Z,1.2
2023-01-15T20:13:48.037Z,0.9
2023-01-15T20:16:50.039Z,0.9
2023-01-15T20:19:52.029Z,1.1
2023-01-15T20:22:53.958Z,1
2023-01-15T20:25:55.929Z,1.1
2023-01-15T20:28:57.878Z,1.2
2023-01-15T20:31:59.898Z,1.1
2023-01-15T20:35:01.817Z,1
2023-01-15T20:38:03.778Z,1
2023-01-15T20:41:05.736Z,1.4
2023-01-15T20:44:07.707Z,1
2023-01-15T20:47:09.670Z,1.6
2023-01-15T20:50:15.812Z,1.1
2023-01-15T20:53:16.614Z,1.2
2023-01-15T20:56:18.566Z,1.3
2023-01-15T20:59:20.548Z,1.4
2023-01-15T21:02:22.499Z,1.2
2023-01-15T21:05:24.483Z,1.1
2023-01-15T21:08:26.448Z,1
2023-01-15T21:11:28.388Z,1.6
2023-01-15T21:14:30.346Z,1.2
2023-01-15T21:17:32.336Z,1.2
2023-01-15T21:20:34.301Z,1.5
2023-01-15T21:23:36.262Z,1.3
2023-01-15T21:26:38.211Z,1.6
2023-01-15T21:29:40.167Z,0.8
2023-01-15T21:32:42.123Z,1.3
2023-01-15T21:35:44.101Z,1.4
2023-01-15T21:38:46.047Z,1.3
2023-01-15T21:41:48.011Z,1.4
2023-01-15T21:44:49.977Z,1.1
2023-01-15T21:47:51.930Z,1.2
2023-01-15T21:50:53.917Z,1.4
2023-01-15T21:53:56.176Z,1
2023-01-15T21:56:57.826Z,1.1
2023-01-15T21:59:59.782Z,1.5
2023-01-15T22:03:01.786Z,1.2
2023-01-15T22:06:03.725Z,1.4
2023-01-15T22:09:05.679Z,1.1
2023-01-15T22:12:07.635Z,1.1
2023-01-15T22:15:09.590Z,1.3
2023-01-15T22:18:11.557Z,1.3
2023-01-15T22:21:13.510Z,0.9
2023-01-15T22:24:15.469Z,1.3
2023-01-15T22:27:17.435Z,1.3
2023-01-15T22:30:19.385Z,1.3
2023-01-15T22:33:21.343Z,1.1
2023-01-15T22:36:23.300Z,1.1
2023-01-15T22:39:25.253Z,1.2
2023-01-15T22:42:27.254Z,1.5
2023-01-15T22:45:29.188Z,1.3
2023-01-15T22:48:31.157Z,1.6
2023-01-15T22:51:33.127Z,0.9
2023-01-15T22:54:35.103Z,1.2
2023-01-15T22:57:37.053Z,1
2023-01-15T23:00:38.997Z,1.2
2023-01-15T23:03:40.961Z,0.8
2023-01-15T23:06:42.940Z,1.2
2023-01-15T23:09:44.891Z,0.9
2023-01-15T23:12:46.840Z,1.6
2023-01-15T23:15:48.842Z,0.9
2023-01-15T23:18:50.745Z,0.8
2023-01-15T23:21:52.714Z,1
2023-01-15T23:24:54.694Z,1
2023-01-15T23:27:56.637Z,1
2023-01-15T23:30:58.627Z,1
2023-01-15T23:34:00.605Z,1
2023-01-15T23:37:02.525Z,0.9
2023-01-15T23:40:04.504Z,1.1
2023-01-15T23:43:06.444Z,1.3
2023-01-15T23:46:08.477Z,1.1
2023-01-15T23:49:10.365Z,0.7
2023-01-15T23:52:12.318Z,0.7
2023-01-15T23:55:14.298Z,0.7
2023-01-15T23:58:16.244Z,0.6
